Terminal Aerodrome Forecast
Issued by NWS

Home | Current Version | Previous Version | Text Only | Print | Product List | Glossary On
Versions: 1 2 3 4 5 6 7 8 9 10 11 12 13 14 15 16 17 18 19 20 21 22 23 24
000
FTUS46 KOTX 251120
TAFCOE
TAF
KCOE 251120Z 2512/2612 07006KT P6SM FEW050 BKN120
     FM251600 VRB05KT P6SM VCSH BKN050 OVC100
     FM252100 31006KT P6SM VCSH SCT050 BKN100
     FM260200 04004KT P6SM SCT050 BKN120=

USA.gov is the U.S. government's official web portal to all federal, state and local government web resources and services.